Rechercher aéroport 
image banner adimage banner ad
image banner ad

TUPA - The Settlement/Auguste George Airport (Anegada Is-B.V.I)

Situé à Settlement, Virgin Islands British

ICAO - TUPA, IATA - NGD

Données fournies par Airmate  

Information générale

Coordonnées: N18°43'40" W64°19'43"
Élévation : 13 feet MSL.
 
Voir autres Aéroports à (unassigned)

Données opérationnelles

Accessible au public
Heure actuelle UTC:
Heure actuelle locale:
Météo à : TUPJ - Terrance B Lettsome Intl ( 39 km )
METAR: TUPJ 261200Z 04005KT 10SM SCT019 29/25 A3001 RMK Q1016 VIS16KM
TAF: TAF TUPJ 261111Z 2612/2712 06010KT 9999 SCT019 PROB40 TEMPO 2700/2712 SHRA FEW012CB BKN014 PROB30 TEMPO 2703/2710 4000 TSRA
Voir NOTAMs / SUP AIP / TFR affectant cet aéroport [VIEW]
Fréquences de communication: [VIEW]

Pistes:

Identifiant RWYQFULongueur (ft)Largeur (ft)SurfaceLDA (ft)
0974°250059UNK
27254°269059

Coordonnées de l'aéroport

Adresse: Settlement Virgin Islands British

Vue satellite de TUPA